createdAt,value
2018-06-29T00:02:27.731Z,53.70
2018-06-29T00:04:56.206Z,53.50
2018-06-29T00:07:24.573Z,53.70
2018-06-29T00:09:53.118Z,53.90
2018-06-29T00:12:21.629Z,54.20
2018-06-29T00:14:50.156Z,53.90
2018-06-29T00:17:18.426Z,54.00
2018-06-29T00:19:46.823Z,54.20
2018-06-29T00:22:15.302Z,54.00
2018-06-29T00:24:43.770Z,54.30
2018-06-29T00:27:12.186Z,54.30
2018-06-29T00:32:08.721Z,54.10
2018-06-29T00:34:37.103Z,54.60
2018-06-29T00:37:05.831Z,54.80
2018-06-29T00:39:34.229Z,54.70
2018-06-29T00:42:02.621Z,54.70
2018-06-29T00:44:31.106Z,54.90
2018-06-29T00:46:59.489Z,55.00
2018-06-29T00:49:27.990Z,55.30
2018-06-29T00:51:56.411Z,55.60
2018-06-29T00:54:24.776Z,55.80
2018-06-29T00:56:53.161Z,55.90
2018-06-29T00:59:21.582Z,56.20
2018-06-29T01:01:49.955Z,56.40
2018-06-29T01:04:18.369Z,56.00
2018-06-29T01:06:46.733Z,56.30
2018-06-29T01:09:15.154Z,56.30
2018-06-29T01:11:43.566Z,56.50
2018-06-29T01:14:11.973Z,56.90
2018-06-29T01:16:40.409Z,56.90
2018-06-29T01:21:36.911Z,57.20
2018-06-29T01:24:05.377Z,57.30
2018-06-29T01:26:33.873Z,57.60
2018-06-29T01:29:02.280Z,57.60
2018-06-29T01:31:30.646Z,57.90
2018-06-29T01:33:59.529Z,57.70
2018-06-29T01:36:27.909Z,58.20
2018-06-29T01:38:56.268Z,58.30
2018-06-29T01:41:24.689Z,58.40
2018-06-29T01:43:53.170Z,58.40
2018-06-29T01:46:21.578Z,58.40
2018-06-29T01:48:49.993Z,58.80
2018-06-29T01:51:18.381Z,58.80
2018-06-29T01:53:46.747Z,59.00
2018-06-29T01:56:15.233Z,59.40
2018-06-29T01:58:43.610Z,59.50
2018-06-29T02:01:12.144Z,59.70
2018-06-29T02:03:40.510Z,59.70
2018-06-29T02:06:08.870Z,59.80
2018-06-29T02:08:37.309Z,59.90
2018-06-29T02:13:34.206Z,60.70
2018-06-29T02:16:02.702Z,60.50
2018-06-29T02:18:31.192Z,61.00
2018-06-29T02:20:59.584Z,61.30
2018-06-29T02:23:28.034Z,61.10
2018-06-29T02:25:56.470Z,61.10
2018-06-29T02:28:24.837Z,61.60
2018-06-29T02:30:53.303Z,61.60
2018-06-29T02:33:22.207Z,61.40
2018-06-29T02:35:50.718Z,61.40
2018-06-29T02:40:47.190Z,61.90
2018-06-29T02:43:15.578Z,61.70
2018-06-29T02:45:44.002Z,62.00
2018-06-29T02:48:12.365Z,61.90
2018-06-29T02:50:40.821Z,62.00
2018-06-29T02:53:09.381Z,62.50
2018-06-29T02:55:37.799Z,62.50
2018-06-29T02:58:06.190Z,62.40
2018-06-29T03:00:34.566Z,62.30
2018-06-29T03:03:02.941Z,62.80
2018-06-29T03:05:31.457Z,63.30
2018-06-29T03:07:59.870Z,63.10
2018-06-29T03:10:28.278Z,63.20
2018-06-29T03:12:56.666Z,63.50
2018-06-29T03:15:25.065Z,63.40
2018-06-29T03:17:53.424Z,63.20
2018-06-29T03:20:21.865Z,63.40
2018-06-29T03:22:50.239Z,63.40
2018-06-29T03:25:18.669Z,63.40
2018-06-29T03:30:15.082Z,64.20
2018-06-29T03:37:39.658Z,64.30
2018-06-29T03:40:08.064Z,64.30
2018-06-29T03:42:36.413Z,64.40
2018-06-29T03:45:04.975Z,64.50
2018-06-29T03:47:33.377Z,64.50
2018-06-29T03:50:01.839Z,64.90
2018-06-29T03:52:30.189Z,64.50
2018-06-29T03:54:58.638Z,64.90
2018-06-29T03:57:27.057Z,65.40
2018-06-29T03:59:55.458Z,64.80
2018-06-29T04:02:23.865Z,64.70
2018-06-29T04:04:52.268Z,64.50
2018-06-29T04:07:20.657Z,64.70
2018-06-29T04:09:49.106Z,64.60
2018-06-29T04:12:17.491Z,64.70
2018-06-29T04:14:45.904Z,64.40
2018-06-29T04:17:14.346Z,64.50
2018-06-29T04:19:42.734Z,64.40
2018-06-29T04:22:11.127Z,64.70
2018-06-29T04:24:39.501Z,64.50
2018-06-29T04:27:07.850Z,64.60
2018-06-29T04:29:36.272Z,64.40
2018-06-29T04:32:04.642Z,64.50
2018-06-29T04:34:33.106Z,64.60
2018-06-29T04:37:01.598Z,64.50
2018-06-29T04:39:29.982Z,64.60
2018-06-29T04:41:59.106Z,64.40
2018-06-29T04:44:27.492Z,64.70
2018-06-29T04:46:55.876Z,64.40
2018-06-29T04:49:24.293Z,64.40
2018-06-29T04:51:52.666Z,64.40
2018-06-29T04:54:21.023Z,64.40
2018-06-29T04:56:49.544Z,64.50
2018-06-29T04:59:17.962Z,64.60
2018-06-29T05:01:47.065Z,65.00
2018-06-29T05:04:15.538Z,64.60
2018-06-29T05:06:44.015Z,64.70
2018-06-29T05:09:12.470Z,64.70
2018-06-29T05:11:41.542Z,64.60
2018-06-29T05:14:10.017Z,64.80
2018-06-29T05:16:38.460Z,65.30
2018-06-29T05:19:06.891Z,64.90
2018-06-29T05:24:03.845Z,64.70
2018-06-29T05:26:33.006Z,65.00
2018-06-29T05:29:01.471Z,64.60
2018-06-29T05:31:32.396Z,64.20
2018-06-29T05:36:29.104Z,64.30
2018-06-29T05:38:57.839Z,64.30
2018-06-29T05:41:26.736Z,64.60
2018-06-29T05:43:55.298Z,65.00
2018-06-29T05:48:52.342Z,63.80
2018-06-29T05:51:20.722Z,63.60
2018-06-29T05:53:49.125Z,63.40
2018-06-29T06:03:42.457Z,63.10
2018-06-29T06:06:10.870Z,63.20
2018-06-29T06:08:39.301Z,62.80
2018-06-29T06:11:08.029Z,62.50
2018-06-29T06:13:36.862Z,62.50
2018-06-29T06:16:05.447Z,61.60
2018-06-29T06:18:33.845Z,61.80
2018-06-29T06:21:02.330Z,60.80
2018-06-29T06:23:30.791Z,61.00
2018-06-29T06:25:59.230Z,60.20
2018-06-29T06:28:27.611Z,59.80
2018-06-29T06:30:56.036Z,60.00
2018-06-29T06:33:24.504Z,60.00
2018-06-29T06:35:52.966Z,59.00
2018-06-29T06:38:21.410Z,58.30
2018-06-29T06:40:49.792Z,58.20
2018-06-29T06:43:18.209Z,57.60
2018-06-29T06:45:46.609Z,57.10
2018-06-29T06:48:14.994Z,56.70
2018-06-29T06:50:43.386Z,56.10
2018-06-29T06:53:11.855Z,56.20
2018-06-29T06:55:40.241Z,57.10
2018-06-29T06:58:08.647Z,55.00
2018-06-29T07:00:37.022Z,54.40
2018-06-29T07:03:05.441Z,53.80
2018-06-29T07:05:33.859Z,53.80
2018-06-29T07:08:02.347Z,54.70
2018-06-29T07:10:30.735Z,53.70
2018-06-29T07:12:59.134Z,52.70
2018-06-29T07:15:27.578Z,53.20
2018-06-29T07:17:56.049Z,52.50
2018-06-29T07:20:24.486Z,53.00
2018-06-29T07:22:53.008Z,53.50
2018-06-29T07:25:21.372Z,52.00
2018-06-29T07:27:49.794Z,51.80
2018-06-29T07:30:18.221Z,51.10
2018-06-29T07:32:47.133Z,52.00
2018-06-29T07:35:15.914Z,51.30
2018-06-29T07:37:44.283Z,50.30
2018-06-29T07:40:12.658Z,49.90
2018-06-29T07:42:41.056Z,50.30
2018-06-29T07:45:10.161Z,49.40
2018-06-29T07:47:38.556Z,48.60
2018-06-29T07:50:07.083Z,49.30
2018-06-29T07:52:35.491Z,48.60
2018-06-29T07:55:03.987Z,47.90
2018-06-29T07:57:32.413Z,47.70
2018-06-29T08:00:00.776Z,48.80
2018-06-29T08:02:29.422Z,47.90
2018-06-29T08:04:58.007Z,47.80
2018-06-29T08:07:26.436Z,47.00
2018-06-29T08:09:54.874Z,46.30
2018-06-29T08:12:23.308Z,45.70
2018-06-29T08:14:51.791Z,44.70
2018-06-29T08:17:20.219Z,45.90
2018-06-29T08:19:48.648Z,45.50
2018-06-29T08:22:17.039Z,44.00
2018-06-29T08:24:56.917Z,43.50
2018-06-29T08:27:25.333Z,44.90
2018-06-29T08:29:53.689Z,43.50
2018-06-29T08:34:50.433Z,41.40
2018-06-29T08:39:47.042Z,40.90
2018-06-29T08:42:15.522Z,40.40
2018-06-29T08:44:44.617Z,40.90
2018-06-29T08:47:13.050Z,41.40
2018-06-29T08:49:41.551Z,39.50
2018-06-29T08:52:10.013Z,38.50
2018-06-29T08:54:38.417Z,38.70
2018-06-29T08:59:35.022Z,37.80
2018-06-29T09:02:03.582Z,37.50
2018-06-29T09:04:31.978Z,37.50
2018-06-29T09:07:00.377Z,37.40
2018-06-29T09:09:28.866Z,38.60
2018-06-29T09:11:57.217Z,37.50
2018-06-29T09:14:25.720Z,36.10
2018-06-29T09:16:54.138Z,34.10
2018-06-29T09:21:50.854Z,34.70
2018-06-29T09:24:19.310Z,33.60
2018-06-29T09:26:47.694Z,34.30
2018-06-29T09:29:16.278Z,34.30
2018-06-29T09:31:44.707Z,33.90
2018-06-29T09:34:13.089Z,34.00
2018-06-29T09:36:41.642Z,34.70
2018-06-29T09:39:11.986Z,33.60
2018-06-29T09:41:40.506Z,33.20
2018-06-29T09:44:08.921Z,32.70
2018-06-29T09:46:37.406Z,33.80
2018-06-29T09:49:05.810Z,34.40
2018-06-29T09:51:34.825Z,34.50
2018-06-29T09:54:03.283Z,34.50
2018-06-29T09:56:31.707Z,33.20
2018-06-29T09:59:00.113Z,33.30
2018-06-29T10:01:28.774Z,32.20
2018-06-29T10:03:57.575Z,32.20
2018-06-29T10:06:26.248Z,31.20
2018-06-29T10:08:54.654Z,31.30
2018-06-29T10:11:23.047Z,32.90
2018-06-29T10:13:51.455Z,31.10
2018-06-29T10:16:19.852Z,32.80
2018-06-29T10:18:48.246Z,30.70
2018-06-29T10:21:16.658Z,29.70
2018-06-29T10:23:45.058Z,29.80
2018-06-29T10:26:13.542Z,28.90
2018-06-29T10:28:42.175Z,30.30
2018-06-29T10:31:10.526Z,29.60
2018-06-29T10:33:39.826Z,30.00
2018-06-29T10:36:08.274Z,30.10
2018-06-29T10:38:36.671Z,31.00
2018-06-29T10:41:05.114Z,30.40
2018-06-29T10:43:33.515Z,29.90
2018-06-29T10:46:01.962Z,30.60
2018-06-29T10:50:58.425Z,29.50
2018-06-29T10:55:54.917Z,30.10
2018-06-29T10:58:24.055Z,30.20
2018-06-29T11:00:52.491Z,29.50
2018-06-29T11:03:20.919Z,29.70
2018-06-29T11:05:49.309Z,29.40
2018-06-29T11:08:18.357Z,29.10
2018-06-29T11:10:46.841Z,30.40
2018-06-29T11:13:15.294Z,28.60
2018-06-29T11:15:43.794Z,30.30
2018-06-29T11:18:12.337Z,30.20
2018-06-29T11:20:40.826Z,30.20
2018-06-29T11:23:09.260Z,29.00
2018-06-29T11:25:38.418Z,28.80
2018-06-29T11:28:06.792Z,29.20
2018-06-29T11:30:35.270Z,28.30
2018-06-29T11:33:03.796Z,29.50
2018-06-29T11:35:32.201Z,28.80
2018-06-29T11:38:00.643Z,29.40
2018-06-29T11:40:29.066Z,28.10
2018-06-29T11:42:57.490Z,28.40
2018-06-29T11:47:54.030Z,28.50
2018-06-29T11:50:23.294Z,28.50
2018-06-29T11:52:51.685Z,28.10
2018-06-29T11:55:20.034Z,28.80
2018-06-29T11:57:48.437Z,29.70
2018-06-29T12:00:16.972Z,29.10
2018-06-29T12:02:45.501Z,28.60
2018-06-29T12:05:13.914Z,29.10
2018-06-29T12:07:42.436Z,28.20
2018-06-29T12:10:10.865Z,28.00
2018-06-29T12:12:39.353Z,27.00
2018-06-29T12:15:08.265Z,28.80
2018-06-29T12:20:04.869Z,28.80
2018-06-29T12:22:33.463Z,28.00
2018-06-29T12:25:01.855Z,27.80
2018-06-29T12:27:30.238Z,28.10
2018-06-29T12:29:58.649Z,27.80
2018-06-29T12:32:27.033Z,26.90
2018-06-29T12:34:55.506Z,27.00
2018-06-29T12:37:23.925Z,28.30
2018-06-29T12:39:52.333Z,25.90
2018-06-29T12:42:20.745Z,26.70
2018-06-29T12:44:49.126Z,27.10
2018-06-29T12:47:17.507Z,26.70
2018-06-29T12:52:14.028Z,25.20
2018-06-29T12:54:42.483Z,25.60
2018-06-29T12:57:11.005Z,25.20
2018-06-29T12:59:39.413Z,26.60
2018-06-29T13:04:35.926Z,27.20
2018-06-29T13:07:04.333Z,26.10
2018-06-29T13:09:32.812Z,26.10
2018-06-29T13:12:01.185Z,26.50
2018-06-29T13:14:29.593Z,27.40
2018-06-29T13:16:58.071Z,27.20
2018-06-29T13:19:27.206Z,27.50
2018-06-29T13:21:55.618Z,27.00
2018-06-29T13:24:24.006Z,25.90
2018-06-29T13:26:52.481Z,27.10
2018-06-29T13:29:20.868Z,27.00
2018-06-29T13:31:49.241Z,28.30
2018-06-29T13:34:17.781Z,26.90
2018-06-29T13:36:46.178Z,27.40
2018-06-29T13:39:14.629Z,27.90
2018-06-29T13:41:43.130Z,28.50
2018-06-29T13:46:39.730Z,28.50
2018-06-29T13:49:08.186Z,29.60
2018-06-29T13:51:36.601Z,28.00
2018-06-29T13:54:05.055Z,29.10
2018-06-29T13:56:33.446Z,28.00
2018-06-29T13:59:01.895Z,28.20
2018-06-29T14:01:30.350Z,29.30
2018-06-29T14:03:58.717Z,28.00
2018-06-29T14:06:27.256Z,29.20
2018-06-29T14:08:55.724Z,28.10
2018-06-29T14:11:24.149Z,27.50
2018-06-29T14:13:52.569Z,28.50
2018-06-29T14:16:21.164Z,28.80
2018-06-29T14:18:49.542Z,28.20
2018-06-29T14:21:18.034Z,28.50
2018-06-29T14:23:46.511Z,29.40
2018-06-29T14:28:43.149Z,30.30
2018-06-29T14:31:11.641Z,29.90
2018-06-29T14:33:40.142Z,30.40
2018-06-29T14:36:08.585Z,29.90
2018-06-29T14:38:37.034Z,29.90
2018-06-29T14:41:05.477Z,29.00
2018-06-29T14:46:02.067Z,30.40
2018-06-29T14:48:30.578Z,30.50
2018-06-29T14:50:58.959Z,29.60
2018-06-29T14:53:27.346Z,29.60
2018-06-29T14:55:55.750Z,30.10
2018-06-29T14:58:24.757Z,28.20
2018-06-29T15:03:21.369Z,29.00
2018-06-29T15:05:49.776Z,28.20
2018-06-29T15:08:18.152Z,28.30
2018-06-29T15:10:46.609Z,28.00
2018-06-29T15:13:15.030Z,27.50
2018-06-29T15:18:11.705Z,30.70
2018-06-29T15:20:40.121Z,28.20
2018-06-29T15:23:08.529Z,28.10
2018-06-29T15:25:37.007Z,28.70
2018-06-29T15:28:05.919Z,27.90
2018-06-29T15:35:31.059Z,26.30
2018-06-29T15:37:59.450Z,26.30
2018-06-29T15:42:56.597Z,26.90
2018-06-29T15:45:25.101Z,26.90
2018-06-29T15:47:55.169Z,27.60
2018-06-29T15:50:23.762Z,27.30
2018-06-29T15:52:52.567Z,29.00
2018-06-29T15:55:21.093Z,28.50
2018-06-29T15:57:49.858Z,28.60
2018-06-29T16:00:18.273Z,29.00
2018-06-29T16:02:47.209Z,28.90
2018-06-29T16:05:16.091Z,29.50
2018-06-29T16:07:44.508Z,29.80
2018-06-29T16:10:13.021Z,31.20
2018-06-29T16:12:43.674Z,30.60
2018-06-29T16:15:12.245Z,32.00
2018-06-29T16:17:40.800Z,30.80
2018-06-29T16:20:09.314Z,32.40
2018-06-29T16:22:37.822Z,33.00
2018-06-29T16:25:06.324Z,33.20
2018-06-29T16:27:34.726Z,33.20
2018-06-29T16:30:03.197Z,33.20
2018-06-29T16:32:31.572Z,32.80
2018-06-29T16:35:00.019Z,33.10
2018-06-29T16:37:28.555Z,32.60
2018-06-29T16:39:56.897Z,33.30
2018-06-29T16:42:25.314Z,32.60
2018-06-29T16:47:22.649Z,33.60
2018-06-29T16:49:51.065Z,33.80
2018-06-29T16:52:19.465Z,33.90
2018-06-29T16:54:47.928Z,33.70
2018-06-29T16:57:16.618Z,34.50
2018-06-29T16:59:45.049Z,34.50
2018-06-29T17:02:13.527Z,37.40
2018-06-29T17:04:42.006Z,36.60
2018-06-29T17:07:10.385Z,38.70
2018-06-29T17:09:38.774Z,39.80
2018-06-29T17:12:07.178Z,41.20
2018-06-29T17:14:35.579Z,40.80
2018-06-29T17:17:04.110Z,41.50
2018-06-29T17:19:33.071Z,42.80
2018-06-29T17:22:01.493Z,42.80
2018-06-29T17:24:29.886Z,43.10
2018-06-29T17:26:58.453Z,43.80
2018-06-29T17:29:26.838Z,44.30
2018-06-29T17:31:55.601Z,44.00
2018-06-29T17:34:24.283Z,44.40
2018-06-29T17:36:52.775Z,46.00
2018-06-29T17:39:21.218Z,45.70
2018-06-29T17:41:49.808Z,46.40
2018-06-29T17:44:18.185Z,45.80
2018-06-29T17:46:46.600Z,45.90
2018-06-29T17:49:15.011Z,46.30
2018-06-29T17:51:43.466Z,47.20
2018-06-29T17:54:11.903Z,48.30
2018-06-29T17:56:40.363Z,48.80
2018-06-29T17:59:08.766Z,49.80
2018-06-29T18:01:37.144Z,50.30
2018-06-29T18:04:05.669Z,50.80
2018-06-29T18:06:34.181Z,51.50
2018-06-29T18:09:02.621Z,51.20
2018-06-29T18:13:59.452Z,51.40
2018-06-29T18:16:27.856Z,51.70
2018-06-29T18:18:56.536Z,51.80
2018-06-29T18:21:25.106Z,51.90
2018-06-29T18:23:53.668Z,51.90
2018-06-29T18:26:22.191Z,52.20
2018-06-29T18:28:50.686Z,52.40
2018-06-29T18:31:19.123Z,52.60
2018-06-29T18:33:47.548Z,52.00
2018-06-29T18:36:15.973Z,52.30
2018-06-29T18:38:44.377Z,52.10
2018-06-29T18:41:12.873Z,52.00
2018-06-29T18:43:41.296Z,52.20
2018-06-29T18:46:09.832Z,53.20
2018-06-29T18:48:38.343Z,52.70
2018-06-29T18:51:06.745Z,52.70
2018-06-29T18:53:35.785Z,52.90
2018-06-29T18:56:04.183Z,53.40
2018-06-29T18:58:32.624Z,53.40
2018-06-29T19:01:01.157Z,53.60
2018-06-29T19:03:29.597Z,53.30
2018-06-29T19:05:58.078Z,53.20
2018-06-29T19:08:26.512Z,53.30
2018-06-29T19:10:54.958Z,53.40
2018-06-29T19:13:23.446Z,53.50
2018-06-29T19:15:51.925Z,53.10
2018-06-29T19:18:20.388Z,53.30
2018-06-29T19:20:48.786Z,53.60
2018-06-29T19:23:17.848Z,53.40
2018-06-29T19:25:46.269Z,53.70
2018-06-29T19:28:14.778Z,53.50
2018-06-29T19:30:43.272Z,53.60
2018-06-29T19:33:18.241Z,53.70
2018-06-29T19:35:46.723Z,54.10
2018-06-29T19:38:15.141Z,54.00
2018-06-29T19:40:43.546Z,54.20
2018-06-29T19:43:11.909Z,54.60
2018-06-29T19:45:40.270Z,54.80
2018-06-29T19:48:09.108Z,55.80
2018-06-29T19:50:37.517Z,55.20
2018-06-29T19:53:06.578Z,56.20
2018-06-29T19:58:03.278Z,56.30
2018-06-29T20:00:31.686Z,57.30
2018-06-29T20:03:00.121Z,57.00
2018-06-29T20:05:28.531Z,57.60
2018-06-29T20:07:56.929Z,58.60
2018-06-29T20:10:25.838Z,57.80
2018-06-29T20:12:54.308Z,58.30
2018-06-29T20:15:23.203Z,59.40
2018-06-29T20:17:51.722Z,59.10
2018-06-29T20:20:20.181Z,59.20
2018-06-29T20:22:48.571Z,59.20
2018-06-29T20:25:16.988Z,59.10
2018-06-29T20:27:45.533Z,59.80
2018-06-29T20:30:14.085Z,59.60
2018-06-29T20:32:42.489Z,59.60
2018-06-29T20:35:10.929Z,60.60
2018-06-29T20:37:39.283Z,61.00
2018-06-29T20:40:07.721Z,61.00
2018-06-29T20:42:36.146Z,61.40
2018-06-29T20:45:04.597Z,60.50
2018-06-29T20:47:33.025Z,61.80
2018-06-29T20:50:01.442Z,61.30
2018-06-29T20:52:29.802Z,62.00
2018-06-29T20:54:58.292Z,61.60
2018-06-29T20:57:26.692Z,61.60
2018-06-29T20:59:55.118Z,61.50
2018-06-29T21:02:23.581Z,62.10
2018-06-29T21:04:52.568Z,62.60
2018-06-29T21:07:21.013Z,62.60
2018-06-29T21:09:49.534Z,62.80
2018-06-29T21:12:17.992Z,62.80
2018-06-29T21:14:46.478Z,62.90
2018-06-29T21:17:14.875Z,63.40
2018-06-29T21:19:43.242Z,64.00
2018-06-29T21:22:11.637Z,63.70
2018-06-29T21:24:40.057Z,64.10
2018-06-29T21:27:08.752Z,63.30
2018-06-29T21:29:37.175Z,63.60
2018-06-29T21:32:05.641Z,64.00
2018-06-29T21:34:34.030Z,64.40
2018-06-29T21:37:02.451Z,65.30
2018-06-29T21:39:30.809Z,65.30
2018-06-29T21:41:59.198Z,64.80
2018-06-29T21:44:28.226Z,65.30
2018-06-29T21:46:56.640Z,65.40
2018-06-29T21:49:25.049Z,65.70
2018-06-29T21:54:21.664Z,65.90
2018-06-29T21:56:50.027Z,65.70
2018-06-29T21:59:18.477Z,66.10
2018-06-29T22:01:46.955Z,66.20
2018-06-29T22:04:15.353Z,66.20
2018-06-29T22:06:44.481Z,66.00
2018-06-29T22:09:13.128Z,65.90
2018-06-29T22:11:41.536Z,65.90
2018-06-29T22:14:10.034Z,66.70
2018-06-29T22:16:38.450Z,66.50
2018-06-29T22:19:06.970Z,66.80
2018-06-29T22:21:35.420Z,66.50
2018-06-29T22:24:03.861Z,66.60
2018-06-29T22:26:32.277Z,66.70
2018-06-29T22:29:00.682Z,67.10
2018-06-29T22:31:29.164Z,66.50
2018-06-29T22:33:57.610Z,67.60
2018-06-29T22:36:26.195Z,67.40
2018-06-29T22:38:54.571Z,67.70
2018-06-29T22:41:22.984Z,67.40
2018-06-29T22:43:51.644Z,67.60
2018-06-29T22:46:20.079Z,68.00
2018-06-29T22:48:48.573Z,68.00
2018-06-29T22:51:16.965Z,67.90
2018-06-29T22:53:46.160Z,67.90
2018-06-29T22:56:14.581Z,68.10
2018-06-29T22:58:42.992Z,68.60
2018-06-29T23:01:11.436Z,68.60
2018-06-29T23:03:45.115Z,68.30
2018-06-29T23:06:13.525Z,68.30
2018-06-29T23:08:41.954Z,68.60
2018-06-29T23:11:10.348Z,68.60
2018-06-29T23:13:38.787Z,68.60
2018-06-29T23:16:07.185Z,68.70
2018-06-29T23:18:35.663Z,69.00
2018-06-29T23:23:32.271Z,70.10
2018-06-29T23:26:00.732Z,69.90
2018-06-29T23:28:29.193Z,70.80
2018-06-29T23:30:57.677Z,70.00
2018-06-29T23:33:26.622Z,69.80
2018-06-29T23:35:55.034Z,70.30
2018-06-29T23:38:23.449Z,70.80
2018-06-29T23:40:51.955Z,70.80
2018-06-29T23:43:20.386Z,70.70
2018-06-29T23:48:16.848Z,70.80
2018-06-29T23:50:45.241Z,71.00
2018-06-29T23:53:13.608Z,71.20
2018-06-29T23:55:42.014Z,71.20
2018-06-29T23:58:10.386Z,71.20
